sensor_id;sensor_type;location;lat;lon;timestamp;pressure;altitude;pressure_sealevel;temperature;humidity
58973;BME280;44750;52.040;7.472;2023-08-31T00:03:55;100552.94;;;13.50;nan
58973;BME280;44750;52.040;7.472;2023-08-31T00:08:55;100573.13;;;13.56;nan
58973;BME280;44750;52.040;7.472;2023-08-31T00:13:56;100574.16;;;13.55;nan
58973;BME280;44750;52.040;7.472;2023-08-31T00:18:56;100573.34;;;13.46;nan
58973;BME280;44750;52.040;7.472;2023-08-31T00:23:57;100590.31;;;13.48;nan
58973;BME280;44750;52.040;7.472;2023-08-31T00:28:57;100598.47;;;13.48;nan
58973;BME280;44750;52.040;7.472;2023-08-31T00:33:57;100618.00;;;13.52;nan
58973;BME280;44750;52.040;7.472;2023-08-31T00:38:57;100620.59;;;13.45;nan
58973;BME280;44750;52.040;7.472;2023-08-31T00:43:57;100635.53;;;13.49;nan
58973;BME280;44750;52.040;7.472;2023-08-31T00:48:58;100632.28;;;13.46;nan
58973;BME280;44750;52.040;7.472;2023-08-31T00:53:58;100651.84;;;13.49;nan
58973;BME280;44750;52.040;7.472;2023-08-31T00:58:59;100638.94;;;13.43;nan
58973;BME280;44750;52.040;7.472;2023-08-31T01:04:21;100622.97;;;13.32;nan
58973;BME280;44750;52.040;7.472;2023-08-31T01:09:34;100634.50;;;13.34;nan
58973;BME280;44750;52.040;7.472;2023-08-31T01:14:43;100661.41;;;13.37;nan
58973;BME280;44750;52.040;7.472;2023-08-31T01:19:49;100675.16;;;13.44;nan
58973;BME280;44750;52.040;7.472;2023-08-31T01:24:50;100662.06;;;13.39;nan
58973;BME280;44750;52.040;7.472;2023-08-31T01:29:54;100669.03;;;13.42;nan
58973;BME280;44750;52.040;7.472;2023-08-31T01:34:56;100672.59;;;13.42;nan
58973;BME280;44750;52.040;7.472;2023-08-31T01:45:14;100623.47;;;13.27;nan
58973;BME280;44750;52.040;7.472;2023-08-31T01:50:15;100627.53;;;13.31;nan
58973;BME280;44750;52.040;7.472;2023-08-31T01:55:15;100598.38;;;13.17;nan
58973;BME280;44750;52.040;7.472;2023-08-31T02:00:17;100604.47;;;13.19;nan
58973;BME280;44750;52.040;7.472;2023-08-31T02:05:17;100564.75;;;13.01;nan
58973;BME280;44750;52.040;7.472;2023-08-31T02:10:18;100570.69;;;12.97;nan
58973;BME280;44750;52.040;7.472;2023-08-31T02:15:18;100546.94;;;12.91;nan
58973;BME280;44750;52.040;7.472;2023-08-31T02:20:18;100558.66;;;12.91;nan
58973;BME280;44750;52.040;7.472;2023-08-31T02:25:19;100530.69;;;12.82;nan
58973;BME280;44750;52.040;7.472;2023-08-31T02:30:19;100506.41;;;12.73;nan
58973;BME280;44750;52.040;7.472;2023-08-31T02:35:19;100502.88;;;12.64;nan
58973;BME280;44750;52.040;7.472;2023-08-31T02:40:19;100524.22;;;12.67;nan
58973;BME280;44750;52.040;7.472;2023-08-31T02:45:20;100514.38;;;12.66;nan
58973;BME280;44750;52.040;7.472;2023-08-31T02:50:20;100517.09;;;12.66;nan
58973;BME280;44750;52.040;7.472;2023-08-31T02:55:20;100512.03;;;12.63;nan
58973;BME280;44750;52.040;7.472;2023-08-31T03:00:20;100479.13;;;12.49;nan
58973;BME280;44750;52.040;7.472;2023-08-31T03:05:21;100473.19;;;12.37;nan
58973;BME280;44750;52.040;7.472;2023-08-31T03:10:21;100483.69;;;12.32;nan
58973;BME280;44750;52.040;7.472;2023-08-31T03:15:21;100524.75;;;12.37;nan
58973;BME280;44750;52.040;7.472;2023-08-31T03:20:21;100550.19;;;12.36;nan
58973;BME280;44750;52.040;7.472;2023-08-31T03:25:21;100572.78;;;12.37;nan
58973;BME280;44750;52.040;7.472;2023-08-31T03:30:22;100575.81;;;12.26;nan
58973;BME280;44750;52.040;7.472;2023-08-31T03:35:22;100609.06;;;12.28;nan
58973;BME280;44750;52.040;7.472;2023-08-31T03:40:22;100604.28;;;12.21;nan
58973;BME280;44750;52.040;7.472;2023-08-31T03:45:24;100634.78;;;12.15;nan
58973;BME280;44750;52.040;7.472;2023-08-31T03:50:24;100644.28;;;12.11;nan
58973;BME280;44750;52.040;7.472;2023-08-31T03:55:25;100686.53;;;12.22;nan
58973;BME280;44750;52.040;7.472;2023-08-31T04:00:25;100704.00;;;12.19;nan
58973;BME280;44750;52.040;7.472;2023-08-31T04:05:25;100734.28;;;12.33;nan
58973;BME280;44750;52.040;7.472;2023-08-31T04:10:26;100748.84;;;12.32;nan
58973;BME280;44750;52.040;7.472;2023-08-31T04:15:26;100750.03;;;12.29;nan
58973;BME280;44750;52.040;7.472;2023-08-31T04:20:26;100758.34;;;12.28;nan
58973;BME280;44750;52.040;7.472;2023-08-31T04:25:28;100762.06;;;12.27;nan
58973;BME280;44750;52.040;7.472;2023-08-31T04:30:29;100782.06;;;12.26;nan
58973;BME280;44750;52.040;7.472;2023-08-31T04:35:29;100788.50;;;12.25;nan
58973;BME280;44750;52.040;7.472;2023-08-31T04:40:29;100792.88;;;12.17;nan
58973;BME280;44750;52.040;7.472;2023-08-31T04:45:29;100822.03;;;12.15;nan
58973;BME280;44750;52.040;7.472;2023-08-31T04:50:29;100822.88;;;12.08;nan
58973;BME280;44750;52.040;7.472;2023-08-31T04:55:30;100855.78;;;12.13;nan
58973;BME280;44750;52.040;7.472;2023-08-31T05:00:30;100873.75;;;12.14;nan
58973;BME280;44750;52.040;7.472;2023-08-31T05:05:30;100903.53;;;12.24;nan
58973;BME280;44750;52.040;7.472;2023-08-31T05:10:31;100901.28;;;12.19;nan
58973;BME280;44750;52.040;7.472;2023-08-31T05:15:31;100921.50;;;12.25;nan
58973;BME280;44750;52.040;7.472;2023-08-31T05:20:31;100941.56;;;12.32;nan
58973;BME280;44750;52.040;7.472;2023-08-31T05:25:31;100960.13;;;12.45;nan
58973;BME280;44750;52.040;7.472;2023-08-31T05:30:31;100952.94;;;12.35;nan
58973;BME280;44750;52.040;7.472;2023-08-31T05:35:32;100967.78;;;12.41;nan
58973;BME280;44750;52.040;7.472;2023-08-31T05:40:34;100967.56;;;12.34;nan
58973;BME280;44750;52.040;7.472;2023-08-31T05:45:35;100978.88;;;12.30;nan
58973;BME280;44750;52.040;7.472;2023-08-31T05:50:35;100995.69;;;12.33;nan
58973;BME280;44750;52.040;7.472;2023-08-31T05:55:35;100999.75;;;12.29;nan
58973;BME280;44750;52.040;7.472;2023-08-31T06:00:35;101059.56;;;12.64;nan
58973;BME280;44750;52.040;7.472;2023-08-31T06:05:35;101087.06;;;12.87;nan
58973;BME280;44750;52.040;7.472;2023-08-31T06:10:36;101118.97;;;13.11;nan
58973;BME280;44750;52.040;7.472;2023-08-31T06:15:36;101076.25;;;12.95;nan
58973;BME280;44750;52.040;7.472;2023-08-31T06:20:36;101054.00;;;12.92;nan
58973;BME280;44750;52.040;7.472;2023-08-31T06:25:36;101057.06;;;12.97;nan
58973;BME280;44750;52.040;7.472;2023-08-31T06:30:38;101063.03;;;13.00;nan
58973;BME280;44750;52.040;7.472;2023-08-31T06:35:38;101066.66;;;13.09;nan
58973;BME280;44750;52.040;7.472;2023-08-31T06:40:38;101055.09;;;13.07;nan
58973;BME280;44750;52.040;7.472;2023-08-31T06:45:39;101044.19;;;12.99;nan
58973;BME280;44750;52.040;7.472;2023-08-31T06:50:39;101083.06;;;13.26;nan
58973;BME280;44750;52.040;7.472;2023-08-31T06:55:39;101073.91;;;13.27;nan
58973;BME280;44750;52.040;7.472;2023-08-31T07:00:41;101078.31;;;13.28;nan
58973;BME280;44750;52.040;7.472;2023-08-31T07:05:42;101117.28;;;13.71;nan
58973;BME280;44750;52.040;7.472;2023-08-31T07:10:43;101080.91;;;13.64;nan
58973;BME280;44750;52.040;7.472;2023-08-31T07:15:43;101087.25;;;13.81;nan
58973;BME280;44750;52.040;7.472;2023-08-31T07:20:45;101121.69;;;14.15;nan
58973;BME280;44750;52.040;7.472;2023-08-31T07:25:45;101192.16;;;15.10;nan
58973;BME280;44750;52.040;7.472;2023-08-31T07:30:46;101169.88;;;15.63;nan
58973;BME280;44750;52.040;7.472;2023-08-31T07:35:46;101102.19;;;15.98;nan
58973;BME280;44750;52.040;7.472;2023-08-31T07:40:49;100944.81;;;15.82;nan
58973;BME280;44750;52.040;7.472;2023-08-31T07:45:50;100800.97;;;15.44;nan
58973;BME280;44750;52.040;7.472;2023-08-31T07:50:50;100742.00;;;15.43;nan
58973;BME280;44750;52.040;7.472;2023-08-31T07:55:53;100716.53;;;15.51;nan
58973;BME280;44750;52.040;7.472;2023-08-31T08:00:55;100774.94;;;16.54;nan
58973;BME280;44750;52.040;7.472;2023-08-31T08:05:56;100750.38;;;17.13;nan
58973;BME280;44750;52.040;7.472;2023-08-31T08:10:56;100600.44;;;17.23;nan
58973;BME280;44750;52.040;7.472;2023-08-31T08:15:56;100526.22;;;17.81;nan
58973;BME280;44750;52.040;7.472;2023-08-31T08:20:56;100362.59;;;17.83;nan
58973;BME280;44750;52.040;7.472;2023-08-31T08:25:57;100172.06;;;17.22;nan
58973;BME280;44750;52.040;7.472;2023-08-31T08:30:57;100100.75;;;17.10;nan
58973;BME280;44750;52.040;7.472;2023-08-31T08:35:58;100173.19;;;18.13;nan
58973;BME280;44750;52.040;7.472;2023-08-31T08:41:04;100024.09;;;18.02;nan
58973;BME280;44750;52.040;7.472;2023-08-31T08:46:05;99941.53;;;17.99;nan
58973;BME280;44750;52.040;7.472;2023-08-31T08:51:10;99801.00;;;17.48;nan
58973;BME280;44750;52.040;7.472;2023-08-31T08:56:11;99882.53;;;18.72;nan
58973;BME280;44750;52.040;7.472;2023-08-31T09:01:11;99711.84;;;18.28;nan
58973;BME280;44750;52.040;7.472;2023-08-31T09:06:12;99749.56;;;19.00;nan
58973;BME280;44750;52.040;7.472;2023-08-31T09:11:19;99635.94;;;19.08;nan
58973;BME280;44750;52.040;7.472;2023-08-31T09:16:27;99480.13;;;18.50;nan
58973;BME280;44750;52.040;7.472;2023-08-31T09:21:38;99429.44;;;18.17;nan
58973;BME280;44750;52.040;7.472;2023-08-31T09:26:48;99397.28;;;18.25;nan
58973;BME280;44750;52.040;7.472;2023-08-31T09:31:52;99375.28;;;18.19;nan
58973;BME280;44750;52.040;7.472;2023-08-31T09:36:52;99339.66;;;17.96;nan
58973;BME280;44750;52.040;7.472;2023-08-31T09:41:54;99395.66;;;18.59;nan
58973;BME280;44750;52.040;7.472;2023-08-31T09:46:54;99438.88;;;19.40;nan
58973;BME280;44750;52.040;7.472;2023-08-31T09:51:55;99320.00;;;19.51;nan
58973;BME280;44750;52.040;7.472;2023-08-31T09:56:58;99165.19;;;18.72;nan
58973;BME280;44750;52.040;7.472;2023-08-31T10:02:00;99185.97;;;18.85;nan
58973;BME280;44750;52.040;7.472;2023-08-31T10:07:00;99086.41;;;18.22;nan
58973;BME280;44750;52.040;7.472;2023-08-31T10:12:04;99081.25;;;17.97;nan
58973;BME280;44750;52.040;7.472;2023-08-31T10:17:04;99155.81;;;18.57;nan
58973;BME280;44750;52.040;7.472;2023-08-31T10:22:05;99145.91;;;18.67;nan
58973;BME280;44750;52.040;7.472;2023-08-31T10:27:19;99235.59;;;19.76;nan
58973;BME280;44750;52.040;7.472;2023-08-31T10:32:19;99057.19;;;19.59;nan
58973;BME280;44750;52.040;7.472;2023-08-31T10:37:20;98934.25;;;19.16;nan
58973;BME280;44750;52.040;7.472;2023-08-31T10:42:23;98969.69;;;19.62;nan
58973;BME280;44750;52.040;7.472;2023-08-31T10:47:36;98871.75;;;19.90;nan
58973;BME280;44750;52.040;7.472;2023-08-31T10:52:43;98811.97;;;19.20;nan
58973;BME280;44750;52.040;7.472;2023-08-31T10:57:44;98861.31;;;19.15;nan
58973;BME280;44750;52.040;7.472;2023-08-31T11:02:44;98879.69;;;19.64;nan
58973;BME280;44750;52.040;7.472;2023-08-31T11:07:49;98910.44;;;20.48;nan
58973;BME280;44750;52.040;7.472;2023-08-31T11:12:51;98832.50;;;20.65;nan
58973;BME280;44750;52.040;7.472;2023-08-31T11:17:54;98712.28;;;20.50;nan
58973;BME280;44750;52.040;7.472;2023-08-31T11:22:54;98694.31;;;20.27;nan
58973;BME280;44750;52.040;7.472;2023-08-31T11:27:58;98527.72;;;19.90;nan
58973;BME280;44750;52.040;7.472;2023-08-31T11:33:06;98534.09;;;20.05;nan
58973;BME280;44750;52.040;7.472;2023-08-31T11:38:07;98373.16;;;19.94;nan
58973;BME280;44750;52.040;7.472;2023-08-31T11:43:07;98505.97;;;20.77;nan
58973;BME280;44750;52.040;7.472;2023-08-31T11:48:08;98443.84;;;20.81;nan
58973;BME280;44750;52.040;7.472;2023-08-31T11:53:09;98420.38;;;21.20;nan
58973;BME280;44750;52.040;7.472;2023-08-31T11:58:09;98224.75;;;20.71;nan
58973;BME280;44750;52.040;7.472;2023-08-31T12:03:09;98133.63;;;20.33;nan
58973;BME280;44750;52.040;7.472;2023-08-31T12:08:10;98188.06;;;20.11;nan
58973;BME280;44750;52.040;7.472;2023-08-31T12:13:12;98197.69;;;20.03;nan
58973;BME280;44750;52.040;7.472;2023-08-31T12:18:13;98172.72;;;19.68;nan
58973;BME280;44750;52.040;7.472;2023-08-31T12:23:14;98260.22;;;19.29;nan
58973;BME280;44750;52.040;7.472;2023-08-31T12:28:14;98449.28;;;17.00;nan
58973;BME280;44750;52.040;7.472;2023-08-31T12:33:14;98822.53;;;15.89;nan
58973;BME280;44750;52.040;7.472;2023-08-31T12:38:15;99025.41;;;15.95;nan
58973;BME280;44750;52.040;7.472;2023-08-31T12:43:15;99224.44;;;16.52;nan
58973;BME280;44750;52.040;7.472;2023-08-31T12:48:15;99383.41;;;17.35;nan
58973;BME280;44750;52.040;7.472;2023-08-31T12:53:16;99449.84;;;18.33;nan
58973;BME280;44750;52.040;7.472;2023-08-31T12:58:16;99412.44;;;18.39;nan
58973;BME280;44750;52.040;7.472;2023-08-31T13:03:16;99488.63;;;18.61;nan
58973;BME280;44750;52.040;7.472;2023-08-31T13:08:16;99516.94;;;18.97;nan
58973;BME280;44750;52.040;7.472;2023-08-31T13:13:17;99468.75;;;19.25;nan
58973;BME280;44750;52.040;7.472;2023-08-31T13:18:17;99400.19;;;19.53;nan
58973;BME280;44750;52.040;7.472;2023-08-31T13:23:17;99327.63;;;19.78;nan
58973;BME280;44750;52.040;7.472;2023-08-31T13:28:18;99207.81;;;19.72;nan
58973;BME280;44750;52.040;7.472;2023-08-31T13:33:18;99150.84;;;19.62;nan
58973;BME280;44750;52.040;7.472;2023-08-31T13:38:18;99189.28;;;19.79;nan
58973;BME280;44750;52.040;7.472;2023-08-31T13:43:18;99074.03;;;19.28;nan
58973;BME280;44750;52.040;7.472;2023-08-31T13:48:19;99205.19;;;18.85;nan
58973;BME280;44750;52.040;7.472;2023-08-31T13:53:19;99333.28;;;19.02;nan
58973;BME280;44750;52.040;7.472;2023-08-31T13:58:19;99333.34;;;18.78;nan
58973;BME280;44750;52.040;7.472;2023-08-31T14:03:19;99284.28;;;18.41;nan
58973;BME280;44750;52.040;7.472;2023-08-31T14:08:19;99324.81;;;18.15;nan
58973;BME280;44750;52.040;7.472;2023-08-31T14:13:20;99450.84;;;18.63;nan
58973;BME280;44750;52.040;7.472;2023-08-31T14:18:21;99413.28;;;18.63;nan
58973;BME280;44750;52.040;7.472;2023-08-31T14:23:21;99417.69;;;18.29;nan
58973;BME280;44750;52.040;7.472;2023-08-31T14:28:22;99513.69;;;18.34;nan
58973;BME280;44750;52.040;7.472;2023-08-31T14:33:22;99565.31;;;18.18;nan
58973;BME280;44750;52.040;7.472;2023-08-31T14:38:23;99637.50;;;18.73;nan
58973;BME280;44750;52.040;7.472;2023-08-31T14:43:23;99632.81;;;18.92;nan
58973;BME280;44750;52.040;7.472;2023-08-31T14:48:23;99656.09;;;19.13;nan
58973;BME280;44750;52.040;7.472;2023-08-31T14:53:24;99608.41;;;19.14;nan
58973;BME280;44750;52.040;7.472;2023-08-31T14:58:24;99558.41;;;19.12;nan
58973;BME280;44750;52.040;7.472;2023-08-31T15:03:25;99514.06;;;18.92;nan
58973;BME280;44750;52.040;7.472;2023-08-31T15:08:36;99516.41;;;18.88;nan
58973;BME280;44750;52.040;7.472;2023-08-31T15:13:37;99537.03;;;18.79;nan
58973;BME280;44750;52.040;7.472;2023-08-31T15:18:39;99551.78;;;18.78;nan
58973;BME280;44750;52.040;7.472;2023-08-31T15:23:40;99380.63;;;18.14;nan
58973;BME280;44750;52.040;7.472;2023-08-31T15:28:40;99423.88;;;18.36;nan
58973;BME280;44750;52.040;7.472;2023-08-31T15:33:41;99378.25;;;18.30;nan
58973;BME280;44750;52.040;7.472;2023-08-31T15:38:41;99388.75;;;18.33;nan
58973;BME280;44750;52.040;7.472;2023-08-31T15:43:41;99329.16;;;18.04;nan
58973;BME280;44750;52.040;7.472;2023-08-31T15:48:42;99409.81;;;18.32;nan
58973;BME280;44750;52.040;7.472;2023-08-31T15:53:42;99430.34;;;18.65;nan
58973;BME280;44750;52.040;7.472;2023-08-31T15:58:42;99325.72;;;18.57;nan
58973;BME280;44750;52.040;7.472;2023-08-31T16:03:44;99225.72;;;18.18;nan
58973;BME280;44750;52.040;7.472;2023-08-31T16:08:44;99281.19;;;18.26;nan
58973;BME280;44750;52.040;7.472;2023-08-31T16:13:46;99258.09;;;18.10;nan
58973;BME280;44750;52.040;7.472;2023-08-31T16:18:46;99323.81;;;18.21;nan
58973;BME280;44750;52.040;7.472;2023-08-31T16:23:46;99381.25;;;18.40;nan
58973;BME280;44750;52.040;7.472;2023-08-31T16:28:46;99400.91;;;18.49;nan
58973;BME280;44750;52.040;7.472;2023-08-31T16:33:46;99431.06;;;18.61;nan
58973;BME280;44750;52.040;7.472;2023-08-31T16:38:47;99377.56;;;18.46;nan
58973;BME280;44750;52.040;7.472;2023-08-31T16:43:47;99393.25;;;18.15;nan
58973;BME280;44750;52.040;7.472;2023-08-31T16:48:48;99495.31;;;18.23;nan
58973;BME280;44750;52.040;7.472;2023-08-31T16:53:48;99512.41;;;18.06;nan
58973;BME280;44750;52.040;7.472;2023-08-31T16:58:48;99598.94;;;18.26;nan
58973;BME280;44750;52.040;7.472;2023-08-31T17:03:48;99576.75;;;18.15;nan
58973;BME280;44750;52.040;7.472;2023-08-31T17:08:48;99629.28;;;18.24;nan
58973;BME280;44750;52.040;7.472;2023-08-31T17:13:49;99638.03;;;18.33;nan
58973;BME280;44750;52.040;7.472;2023-08-31T17:18:49;99630.06;;;18.31;nan
58973;BME280;44750;52.040;7.472;2023-08-31T17:23:49;99621.31;;;18.23;nan
58973;BME280;44750;52.040;7.472;2023-08-31T17:28:49;99630.19;;;18.18;nan
58973;BME280;44750;52.040;7.472;2023-08-31T17:33:51;99618.19;;;18.00;nan
58973;BME280;44750;52.040;7.472;2023-08-31T17:38:52;99629.75;;;17.84;nan
58973;BME280;44750;52.040;7.472;2023-08-31T17:43:52;99657.25;;;17.70;nan
58973;BME280;44750;52.040;7.472;2023-08-31T17:48:54;99717.41;;;17.77;nan
58973;BME280;44750;52.040;7.472;2023-08-31T17:53:54;99744.16;;;17.75;nan
58973;BME280;44750;52.040;7.472;2023-08-31T17:58:54;99761.19;;;17.77;nan
58973;BME280;44750;52.040;7.472;2023-08-31T18:03:55;99763.38;;;17.68;nan
58973;BME280;44750;52.040;7.472;2023-08-31T18:08:55;99793.88;;;17.72;nan
58973;BME280;44750;52.040;7.472;2023-08-31T18:13:55;99776.50;;;17.60;nan
58973;BME280;44750;52.040;7.472;2023-08-31T18:18:55;99799.91;;;17.55;nan
58973;BME280;44750;52.040;7.472;2023-08-31T18:23:56;99812.34;;;17.51;nan
58973;BME280;44750;52.040;7.472;2023-08-31T18:28:56;99826.25;;;17.43;nan
58973;BME280;44750;52.040;7.472;2023-08-31T18:33:56;99825.47;;;17.36;nan
58973;BME280;44750;52.040;7.472;2023-08-31T18:38:57;99838.56;;;17.27;nan
58973;BME280;44750;52.040;7.472;2023-08-31T18:44:00;99874.31;;;17.32;nan
58973;BME280;44750;52.040;7.472;2023-08-31T18:49:03;99833.63;;;17.04;nan
58973;BME280;44750;52.040;7.472;2023-08-31T18:59:17;99873.66;;;16.92;nan
58973;BME280;44750;52.040;7.472;2023-08-31T19:19:48;99865.75;;;16.03;nan
58973;BME280;44750;52.040;7.472;2023-08-31T19:24:50;99951.47;;;16.42;nan
58973;BME280;44750;52.040;7.472;2023-08-31T19:29:50;99985.91;;;16.36;nan
58973;BME280;44750;52.040;7.472;2023-08-31T19:34:51;100013.00;;;16.38;nan
58973;BME280;44750;52.040;7.472;2023-08-31T19:39:52;100020.81;;;16.41;nan
58973;BME280;44750;52.040;7.472;2023-08-31T19:44:53;100003.53;;;16.27;nan
58973;BME280;44750;52.040;7.472;2023-08-31T19:49:53;100019.91;;;16.20;nan
58973;BME280;44750;52.040;7.472;2023-08-31T19:54:53;100021.59;;;16.08;nan
58973;BME280;44750;52.040;7.472;2023-08-31T19:59:54;100061.91;;;16.06;nan
58973;BME280;44750;52.040;7.472;2023-08-31T20:04:55;100050.31;;;15.91;nan
58973;BME280;44750;52.040;7.472;2023-08-31T20:09:55;100072.75;;;15.93;nan
58973;BME280;44750;52.040;7.472;2023-08-31T20:14:55;100076.75;;;15.83;nan
58973;BME280;44750;52.040;7.472;2023-08-31T20:19:56;100106.28;;;15.80;nan
58973;BME280;44750;52.040;7.472;2023-08-31T20:24:56;100145.00;;;15.90;nan
58973;BME280;44750;52.040;7.472;2023-08-31T20:29:56;100140.34;;;15.84;nan
58973;BME280;44750;52.040;7.472;2023-08-31T20:34:57;100168.50;;;15.91;nan
58973;BME280;44750;52.040;7.472;2023-08-31T20:39:57;100134.81;;;15.77;nan
58973;BME280;44750;52.040;7.472;2023-08-31T20:44:57;100159.38;;;15.77;nan
58973;BME280;44750;52.040;7.472;2023-08-31T20:49:57;100149.00;;;15.66;nan
58973;BME280;44750;52.040;7.472;2023-08-31T20:54:58;100148.09;;;15.52;nan
58973;BME280;44750;52.040;7.472;2023-08-31T20:59:58;100179.13;;;15.51;nan
58973;BME280;44750;52.040;7.472;2023-08-31T21:04:58;100181.31;;;15.34;nan
58973;BME280;44750;52.040;7.472;2023-08-31T21:09:58;100206.97;;;15.40;nan
58973;BME280;44750;52.040;7.472;2023-08-31T21:14:59;100190.28;;;15.28;nan
58973;BME280;44750;52.040;7.472;2023-08-31T21:19:59;100206.91;;;15.11;nan
58973;BME280;44750;52.040;7.472;2023-08-31T21:24:59;100233.66;;;15.01;nan
58973;BME280;44750;52.040;7.472;2023-08-31T21:29:59;100265.84;;;14.91;nan
58973;BME280;44750;52.040;7.472;2023-08-31T21:34:59;100313.41;;;15.10;nan
58973;BME280;44750;52.040;7.472;2023-08-31T21:40:00;100320.97;;;15.08;nan
58973;BME280;44750;52.040;7.472;2023-08-31T21:45:02;100341.06;;;15.07;nan
58973;BME280;44750;52.040;7.472;2023-08-31T21:50:02;100355.34;;;15.09;nan
58973;BME280;44750;52.040;7.472;2023-08-31T21:55:03;100362.59;;;15.01;nan
58973;BME280;44750;52.040;7.472;2023-08-31T22:00:04;100388.44;;;15.05;nan
58973;BME280;44750;52.040;7.472;2023-08-31T22:05:04;100402.66;;;15.01;nan
58973;BME280;44750;52.040;7.472;2023-08-31T22:10:05;100393.25;;;14.88;nan
58973;BME280;44750;52.040;7.472;2023-08-31T22:15:16;100419.56;;;14.96;nan
58973;BME280;44750;52.040;7.472;2023-08-31T22:20:17;100429.25;;;14.99;nan
58973;BME280;44750;52.040;7.472;2023-08-31T22:25:21;100409.41;;;14.75;nan
58973;BME280;44750;52.040;7.472;2023-08-31T22:30:22;100446.91;;;14.73;nan
58973;BME280;44750;52.040;7.472;2023-08-31T22:35:22;100466.06;;;14.65;nan
58973;BME280;44750;52.040;7.472;2023-08-31T22:40:23;100503.09;;;14.74;nan
58973;BME280;44750;52.040;7.472;2023-08-31T22:45:23;100499.59;;;14.65;nan
58973;BME280;44750;52.040;7.472;2023-08-31T22:50:23;100524.69;;;14.52;nan
58973;BME280;44750;52.040;7.472;2023-08-31T22:55:25;100565.50;;;14.61;nan
58973;BME280;44750;52.040;7.472;2023-08-31T23:00:25;100591.41;;;14.65;nan
58973;BME280;44750;52.040;7.472;2023-08-31T23:05:27;100598.56;;;14.58;nan
58973;BME280;44750;52.040;7.472;2023-08-31T23:10:27;100616.28;;;14.53;nan
58973;BME280;44750;52.040;7.472;2023-08-31T23:15:27;100624.16;;;14.48;nan
58973;BME280;44750;52.040;7.472;2023-08-31T23:20:28;100637.28;;;14.45;nan
58973;BME280;44750;52.040;7.472;2023-08-31T23:25:28;100646.72;;;14.34;nan
58973;BME280;44750;52.040;7.472;2023-08-31T23:30:28;100644.59;;;14.21;nan
58973;BME280;44750;52.040;7.472;2023-08-31T23:35:28;100695.13;;;14.24;nan
58973;BME280;44750;52.040;7.472;2023-08-31T23:40:28;100741.34;;;14.32;nan
58973;BME280;44750;52.040;7.472;2023-08-31T23:45:29;100759.41;;;14.33;nan
58973;BME280;44750;52.040;7.472;2023-08-31T23:50:29;100779.47;;;14.32;nan
58973;BME280;44750;52.040;7.472;2023-08-31T23:55:29;100811.13;;;14.33;nan
